Time;durP1;ratioP1;P1;durP2;ratioP2;P2;SDS_P1;SDS_P2;PMS_P1;PMS_P2;Temp;Humidity;BMP_temperature;BMP_pressure;BME280_temperature;BME280_humidity;BME280_pressure;Samples;Min_cycle;Max_cycle;Signal;HPM_P1;HPM_P2
2022/02/07 00:02:24;;;;;;;6.30;3.70;;;;;;;20.98;29.89;100509.74;101582;1347;74203;-84
2022/02/07 00:05:13;;;;;;;6.60;4.00;;;;;;;21.00;29.93;100509.63;101697;1345;74950;-84
2022/02/07 00:08:31;;;;;;;5.50;3.80;;;;;;;20.99;29.85;100512.92;101791;1341;61913;-84
2022/02/07 00:11:21;;;;;;;6.00;3.60;;;;;;;20.99;29.85;100514.68;101790;1341;61533;-85
2022/02/07 00:14:45;;;;;;;6.80;3.70;;;;;;;20.99;29.84;100516.64;101714;1345;71623;-84
2022/02/07 00:17:45;;;;;;;6.20;3.90;;;;;;;20.99;29.86;100515.56;101727;1345;75945;-84
2022/02/07 00:20:41;;;;;;;;;;;;;;;;;;;;;
2022/02/07 00:23:29;;;;;;;;;;;;;;;;;;;;;
2022/02/07 00:26:41;;;;;;;5.60;3.50;;;;;;;20.97;29.85;100488.55;101759;1340;72834;-85
2022/02/07 00:29:46;;;;;;;6.40;3.80;;;;;;;20.98;29.86;100483.09;101823;1340;73512;-84
2022/02/07 00:32:47;;;;;;;6.20;3.60;;;;;;;20.97;29.85;100482.27;101762;1340;61425;-87
2022/02/07 00:35:36;;;;;;;5.60;3.70;;;;;;;20.98;29.85;100480.41;101887;1337;61218;-82
2022/02/07 00:38:26;;;;;;;5.60;3.80;;;;;;;20.98;29.86;100478.81;101921;1337;71643;-89
2022/02/07 00:41:20;;;;;;;6.50;4.10;;;;;;;20.98;29.82;100473.40;101933;1337;74719;-87
2022/02/07 00:44:45;;;;;;;7.00;4.00;;;;;;;20.98;29.84;100466.11;101951;1336;61069;-80
2022/02/07 00:47:47;;;;;;;5.30;3.40;;;;;;;20.98;29.77;100462.15;101851;1340;61219;-85
2022/02/07 00:50:38;;;;;;;6.70;3.90;;;;;;;20.98;29.82;100458.91;101783;1344;72921;-83
2022/02/07 00:53:50;;;;;;;6.20;3.60;;;;;;;20.98;29.89;100458.40;101768;1344;73697;-82
2022/02/07 00:56:47;;;;;;;;;;;;;;;;;;;;;
2022/02/07 00:59:59;;;;;;;5.80;3.60;;;;;;;20.99;29.77;100445.66;101844;1340;61904;-89
2022/02/07 01:02:54;;;;;;;7.40;4.10;;;;;;;20.99;29.82;100444.21;101640;1344;71501;-87
2022/02/07 01:06:00;;;;;;;6.80;3.80;;;;;;;20.98;29.78;100440.11;101558;1347;75960;-85
2022/02/07 01:09:51;;;;;;;5.60;3.70;;;;;;;20.98;29.83;100424.55;101233;1353;61349;-83
2022/02/07 01:12:16;;;;;;;5.80;3.70;;;;;;;20.98;29.76;100423.51;101179;1353;61812;-83
2022/02/07 01:22:05;;;;;;;5.30;3.30;;;;;;;20.98;29.81;100405.80;100487;1359;61383;-83
2022/02/07 01:48:15;;;;;;;6.20;3.80;;;;;;;20.97;29.84;100330.38;101656;1345;61463;-82
2022/02/07 01:56:59;;;;;;;6.00;3.80;;;;;;;20.98;29.80;100322.10;101680;1345;75125;-84
2022/02/07 02:00:22;;;;;;;5.70;3.60;;;;;;;20.99;29.88;100306.66;101784;1341;61511;-85
2022/02/07 02:03:16;;;;;;;6.50;4.10;;;;;;;20.99;29.80;100291.46;102059;1338;61630;-84
2022/02/07 02:06:32;;;;;;;5.50;3.60;;;;;;;20.99;29.77;100288.76;102040;1337;71573;-81
2022/02/07 02:09:18;;;;;;;6.70;3.90;;;;;;;20.99;29.70;100283.91;102163;1335;74871;-84
2022/02/07 02:12:45;;;;;;;6.00;3.70;;;;;;;20.99;29.78;100284.07;102297;1335;61310;-84
2022/02/07 02:16:20;;;;;;;5.90;3.60;;;;;;;20.99;29.88;100286.61;102347;1333;61958;-83
2022/02/07 02:22:46;;;;;;;5.50;3.90;;;;;;;20.98;29.80;100280.55;101766;1344;73491;-84
2022/02/07 02:36:24;;;;;;;6.20;3.60;;;;;;;20.98;29.82;100262.88;101713;1344;73659;-85
2022/02/07 02:45:27;;;;;;;5.40;3.50;;;;;;;20.98;29.78;100254.30;101797;1341;61577;-87
2022/02/07 02:45:43;;;;;;;;;;;;;;;;;;;;;
2022/02/07 02:48:35;;;;;;;5.40;3.90;;;;;;;20.98;29.83;100245.55;102014;1337;73493;-89
2022/02/07 02:51:48;;;;;;;;;;;;;;;;;;;;;
2022/02/07 02:54:54;;;;;;;6.00;3.70;;;;;;;20.98;29.78;100240.89;101893;1341;61544;-85
2022/02/07 02:57:42;;;;;;;7.30;4.20;;;;;;;20.98;29.81;100239.48;101755;1344;74069;-86
2022/02/07 03:00:57;;;;;;;5.60;3.90;;;;;;;20.98;29.90;100235.69;102112;1335;75261;-87
2022/02/07 03:03:45;;;;;;;7.10;3.90;;;;;;;20.97;29.80;100229.85;102152;1334;61766;-84
2022/02/07 03:06:35;;;;;;;;;;;;;;;;;;;;;
2022/02/07 03:09:29;;;;;;;6.90;4.30;;;;;;;20.98;29.80;100234.63;102177;1335;72813;-85
2022/02/07 03:12:56;;;;;;;6.00;3.90;;;;;;;20.98;29.77;100236.96;101897;1337;73659;-84
2022/02/07 03:19:19;;;;;;;6.40;4.20;;;;;;;20.98;29.76;100234.30;101921;1337;61644;-86
2022/02/07 03:22:10;;;;;;;6.50;4.30;;;;;;;20.98;29.85;100231.21;101945;1337;72664;-87
2022/02/07 03:25:09;;;;;;;8.60;4.30;;;;;;;20.98;29.83;100229.27;102144;1331;75626;-83
2022/02/07 03:28:22;;;;;;;8.00;4.80;;;;;;;20.98;29.76;100229.98;102315;1332;61193;-87
2022/02/07 03:31:09;;;;;;;;;;;;;;;;;;;;;
2022/02/07 03:34:00;;;;;;;8.10;4.60;;;;;;;20.98;29.84;100228.71;102245;1329;72926;-87
2022/02/07 03:37:22;;;;;;;7.20;4.90;;;;;;;20.98;29.79;100219.42;102534;1329;74824;-79
2022/02/07 03:40:17;;;;;;;7.50;4.70;;;;;;;20.98;29.83;100215.11;102351;1334;62898;-85
2022/02/07 03:43:16;;;;;;;7.50;4.50;;;;;;;20.98;29.82;100199.01;101777;1340;61205;-86
2022/02/07 03:46:40;;;;;;;;;;;;;;;;;;;;;
2022/02/07 03:49:50;;;;;;;7.00;4.60;;;;;;;20.98;29.69;100199.05;101519;1346;75500;-81
2022/02/07 03:52:51;;;;;;;;;;;;;;;;;;;;;
2022/02/07 03:55:41;;;;;;;6.70;4.50;;;;;;;20.98;29.77;100189.04;101638;1346;61368;-89
2022/02/07 03:59:04;;;;;;;9.60;4.60;;;;;;;20.98;29.95;100184.73;101390;1352;72841;-88
2022/02/07 04:01:50;;;;;;;7.20;4.70;;;;;;;20.98;29.73;100181.31;100371;1361;74725;-80
2022/02/07 04:05:02;;;;;;;8.70;5.10;;;;;;;20.98;29.77;100190.80;100386;1355;61440;-84
2022/02/07 04:08:10;;;;;;;9.50;4.90;;;;;;;20.98;29.85;100180.08;101040;1354;61304;-85
2022/02/07 04:11:19;;;;;;;8.70;5.20;;;;;;;20.97;29.78;100168.64;100587;1357;73825;-82
2022/02/07 04:14:21;;;;;;;7.70;5.20;;;;;;;20.98;29.82;100170.58;100490;1358;74834;-90
2022/02/07 04:17:17;;;;;;;;;;;;;;;20.98;29.76;100167.89;100536;1355;61336;-86
2022/02/07 04:20:15;;;;;;;10.40;5.40;;;;;;;20.96;29.82;100160.38;101034;1352;61480;-82
2022/02/07 04:23:37;;;;;;;8.70;5.50;;;;;;;20.96;29.87;100146.57;101394;1346;73102;-83
2022/02/07 04:26:28;;;;;;;8.40;5.40;;;;;;;20.97;29.73;100150.84;101496;1350;73723;-87
2022/02/07 04:29:37;;;;;;;9.80;5.40;;;;;;;20.96;29.77;100146.20;101514;1350;61533;-84
2022/02/07 04:32:32;;;;;;;9.50;5.90;;;;;;;20.96;29.78;100142.27;101037;1356;61951;-84
2022/02/07 04:35:30;;;;;;;10.30;5.90;;;;;;;20.96;29.80;100140.83;101114;1353;74084;-83
2022/02/07 04:38:46;;;;;;;10.30;5.90;;;;;;;20.96;29.82;100132.66;101188;1348;76340;-84
2022/02/07 04:41:56;;;;;;;10.10;5.70;;;;;;;20.97;29.84;100122.90;101606;1348;61508;-84
2022/02/07 04:54:59;;;;;;;9.00;5.60;;;;;;;20.96;29.80;100112.92;100614;1356;61581;-82
2022/02/07 04:57:50;;;;;;;10.00;5.60;;;;;;;20.97;29.70;100107.00;100418;1360;61466;-84
2022/02/07 05:01:05;;;;;;;9.80;5.50;;;;;;;20.97;29.68;100104.97;100280;1361;73609;-82
2022/02/07 05:04:03;;;;;;;11.10;5.90;;;;;;;20.97;29.90;100104.08;100763;1354;74754;-85
2022/02/07 05:16:59;;;;;;;;;;;;;;;;;;;;;
2022/02/07 05:20:22;;;;;;;10.40;5.80;;;;;;;20.97;29.85;100081.54;101471;1348;61390;-85
2022/02/07 05:26:20;;;;;;;9.30;5.70;;;;;;;20.98;29.82;100084.89;101009;1348;73409;-82
2022/02/07 05:29:05;;;;;;;;;;;;;;;;;;;;;
2022/02/07 05:31:57;;;;;;;9.00;5.90;;;;;;;20.99;29.77;100075.52;101616;1342;61608;-83
2022/02/07 05:34:56;;;;;;;11.40;5.90;;;;;;;20.99;29.77;100077.05;101706;1340;61559;-83
2022/02/07 05:37:45;;;;;;;11.30;6.20;;;;;;;20.99;29.80;100071.53;101996;1334;74638;-88
2022/02/07 05:44:15;;;;;;;11.40;6.30;;;;;;;20.99;29.76;100077.13;102152;1330;61563;-83
2022/02/07 05:47:08;;;;;;;10.30;5.80;;;;;;;21.00;29.67;100079.02;102206;1335;61349;-86
2022/02/07 05:50:17;;;;;;;9.20;6.20;;;;;;;21.00;29.76;100072.55;101885;1338;71889;-82
2022/02/07 05:53:06;;;;;;;12.40;7.20;;;;;;;21.00;29.76;100071.88;101724;1343;73758;-85
2022/02/07 05:55:40;;;;;;;10.50;6.60;;;;;;;21.00;29.68;100065.42;101633;1341;62163;-80
2022/02/07 05:58:15;;;;;;;11.70;6.40;;;;;;;21.00;29.60;100066.99;101548;1341;63283;-81
2022/02/07 06:01:11;;;;;;;11.10;6.20;;;;;;;21.01;29.75;100066.59;101880;1335;73875;-83
2022/02/07 06:04:02;;;;;;;9.30;6.10;;;;;;;21.01;29.67;100075.50;102224;1328;75753;-85
2022/02/07 06:06:30;;;;;;;10.30;6.40;;;;;;;21.01;29.76;100076.04;102564;1328;61983;-79
2022/02/07 06:08:56;;;;;;;11.50;5.70;;;;;;;21.03;29.67;100083.09;102420;1327;61100;-83
2022/02/07 06:11:30;;;;;;;9.60;5.40;;;;;;;21.04;29.70;100079.23;102568;1329;73894;-86
2022/02/07 06:13:58;;;;;;;10.00;6.10;;;;;;;21.04;29.65;100092.61;102565;1328;75003;-80
2022/02/07 06:16:32;;;;;;;8.70;5.90;;;;;;;21.05;29.74;100095.90;102545;1326;61329;-81
2022/02/07 06:19:07;;;;;;;10.50;6.00;;;;;;;21.06;29.71;100092.09;102607;1326;61286;-82
2022/02/07 06:21:41;;;;;;;10.00;5.90;;;;;;;21.06;29.63;100085.44;102593;1325;73242;-81
2022/02/07 06:24:16;;;;;;;9.50;5.40;;;;;;;21.07;29.72;100080.05;102950;1322;61252;-83
2022/02/07 06:26:45;;;;;;;9.50;5.80;;;;;;;21.07;29.61;100069.06;102902;1322;61740;-81
2022/02/07 06:29:20;;;;;;;7.70;5.50;;;;;;;21.08;29.54;100062.93;102914;1308;61435;-82
2022/02/07 06:31:55;;;;;;;8.90;5.60;;;;;;;21.08;29.55;100056.30;104365;1308;73325;-81
2022/02/07 06:34:21;;;;;;;9.20;5.90;;;;;;;21.09;29.57;100051.59;104275;1306;74561;-81
2022/02/07 06:37:06;;;;;;;10.60;5.80;;;;;;;21.09;29.68;100056.73;104311;1307;61331;-83
2022/02/07 06:39:51;;;;;;;10.40;5.40;;;;;;;21.10;29.51;100059.23;104307;1307;61574;-86
2022/02/07 06:42:41;;;;;;;8.70;5.70;;;;;;;21.10;29.37;100061.01;104502;1306;72946;-81
2022/02/07 06:45:09;;;;;;;10.70;5.80;;;;;;;21.11;29.48;100058.27;104327;1306;73538;-82
2022/02/07 06:47:47;;;;;;;10.50;6.50;;;;;;;21.10;29.41;100061.13;104264;1308;61366;-81
2022/02/07 06:50:35;;;;;;;9.10;6.00;;;;;;;21.10;29.41;100057.38;104378;1307;61185;-81
2022/02/07 06:53:04;;;;;;;8.40;5.70;;;;;;;21.11;29.41;100053.41;104341;1308;72043;-81
2022/02/07 06:55:48;;;;;;;9.20;6.00;;;;;;;21.11;29.37;100049.83;104327;1306;75042;-80
2022/02/07 06:58:46;;;;;;;10.10;5.60;;;;;;;21.11;29.59;100053.41;104488;1307;61213;-84
2022/02/07 07:01:31;;;;;;;9.90;6.20;;;;;;;21.12;29.61;100053.70;104310;1308;61305;-82
2022/02/07 07:04:17;;;;;;;9.20;6.20;;;;;;;21.13;29.39;100046.30;104324;1306;73788;-82
2022/02/07 07:07:00;;;;;;;9.10;5.40;;;;;;;21.12;29.45;100040.80;103819;1314;74944;-84
2022/02/07 07:09:42;;;;;;;7.80;5.30;;;;;;;21.13;29.48;100037.02;103919;1312;61182;-82
2022/02/07 07:12:19;;;;;;;8.90;5.50;;;;;;;21.13;29.47;100032.16;104022;1313;61551;-82
2022/02/07 07:15:03;;;;;;;9.00;5.40;;;;;;;21.13;29.45;100029.44;103902;1313;72823;-81
2022/02/07 07:17:42;;;;;;;9.00;5.80;;;;;;;21.13;29.47;100029.64;103858;1314;75682;-81
2022/02/07 07:20:29;;;;;;;8.60;5.60;;;;;;;21.13;29.55;100033.37;103922;1313;61279;-81
2022/02/07 07:23:11;;;;;;;9.90;5.60;;;;;;;21.13;29.48;100036.05;103962;1311;62162;-81
2022/02/07 07:26:04;;;;;;;8.60;5.20;;;;;;;21.13;29.57;100033.61;103949;1311;73815;-81
2022/02/07 07:28:52;;;;;;;10.70;5.90;;;;;;;21.12;29.41;100027.72;103735;1317;75539;-81
2022/02/07 07:31:36;;;;;;;8.40;5.10;;;;;;;21.12;29.55;100023.81;103598;1316;61709;-82
2022/02/07 07:34:26;;;;;;;8.50;5.70;;;;;;;21.12;29.49;100019.86;103674;1316;61320;-88
2022/02/07 07:37:12;;;;;;;7.90;5.10;;;;;;;21.13;29.30;100013.73;103724;1317;73928;-84
2022/02/07 07:39:43;;;;;;;7.00;5.50;;;;;;;21.13;29.27;100006.67;103644;1316;74745;-81
2022/02/07 07:42:20;;;;;;;8.70;5.40;;;;;;;21.14;29.15;99991.63;103889;1316;61921;-85
2022/02/07 07:45:03;;;;;;;9.30;5.60;;;;;;;21.14;29.18;99989.42;103546;1317;61139;-84
2022/02/07 07:47:43;;;;;;;9.10;5.50;;;;;;;21.15;29.06;99988.84;103618;1317;72833;-82
2022/02/07 08:02:33;;;;;;;10.70;6.30;;;;;;;21.16;28.68;99983.22;103703;1317;75892;-82
2022/02/07 08:05:13;;;;;;;11.60;6.40;;;;;;;21.16;28.55;99985.70;103678;1314;60753;-85
2022/02/07 08:08:05;;;;;;;10.80;6.80;;;;;;;21.15;28.38;99980.27;104082;1313;61363;-82
2022/02/07 08:11:22;;;;;;;11.70;7.20;;;;;;;21.14;28.27;99977.08;104050;1313;72825;-80
2022/02/07 08:13:33;;;;;;;11.00;6.60;;;;;;;21.14;28.45;99975.33;103970;1311;74973;-81
2022/02/07 08:16:08;;;;;;;9.20;6.40;;;;;;;21.14;28.41;99976.05;104142;1312;61155;-83
2022/02/07 08:18:46;;;;;;;9.80;6.40;;;;;;;21.14;28.40;99973.71;104172;1311;61512;-81
2022/02/07 08:21:31;;;;;;;10.50;6.20;;;;;;;21.14;28.40;99968.34;104022;1313;73966;-82
2022/02/07 08:24:08;;;;;;;10.70;6.60;;;;;;;21.14;28.43;99963.91;104043;1314;76186;-80
2022/02/07 08:26:34;;;;;;;10.00;6.20;;;;;;;21.14;28.24;99955.13;103783;1314;61140;-81
2022/02/07 08:29:28;;;;;;;8.00;5.70;;;;;;;21.14;28.37;99955.12;103004;1319;61281;-81
2022/02/07 08:31:54;;;;;;;11.00;6.50;;;;;;;21.14;28.36;99947.80;102992;1319;74208;-83
2022/02/07 08:34:42;;;;;;;9.90;6.40;;;;;;;21.13;28.41;99947.65;103084;1321;61313;-85
2022/02/07 08:37:14;;;;;;;16.10;6.70;;;;;;;21.13;28.42;99946.42;102756;1325;61240;-84
2022/02/07 08:39:54;;;;;;;8.90;6.30;;;;;;;21.12;28.37;99943.25;102865;1326;61344;-84
2022/02/07 08:42:36;;;;;;;9.00;5.80;;;;;;;21.12;28.47;99940.05;102808;1325;72710;-81
2022/02/07 08:45:49;;;;;;;10.60;6.00;;;;;;;21.11;28.61;99942.45;102865;1325;73571;-81
2022/02/07 08:48:46;;;;;;;9.60;6.30;;;;;;;21.11;28.58;99942.96;102729;1325;61710;-82
2022/02/07 08:51:32;;;;;;;9.00;5.40;;;;;;;21.12;28.62;99940.60;102878;1325;61531;-82
2022/02/07 08:54:10;;;;;;;10.10;6.10;;;;;;;21.12;28.58;99937.21;102709;1325;72873;-81
2022/02/07 08:57:12;;;;;;;;;;;;;;;;;;;;;
2022/02/07 09:06:51;;;;;;;;;;;;;;;;;;;;;
2022/02/07 09:09:44;;;;;;;9.20;5.30;;;;;;;21.12;28.55;99937.75;101865;1338;75904;-88
2022/02/07 09:12:42;;;;;;;8.20;5.50;;;;;;;21.13;28.49;99935.89;101931;1337;61598;-81
2022/02/07 09:18:15;;;;;;;8.70;5.70;;;;;;;21.14;28.58;99922.35;102208;1329;72941;-81
2022/02/07 09:20:59;;;;;;;8.10;5.50;;;;;;;21.16;28.52;99923.30;102427;1329;74776;-81
2022/02/07 09:23:50;;;;;;;9.20;5.80;;;;;;;21.16;28.53;99918.96;102434;1329;61297;-83
2022/02/07 09:26:55;;;;;;;9.30;5.70;;;;;;;21.18;28.60;99917.23;102505;1328;61255;-84
2022/02/07 09:29:49;;;;;;;9.70;5.80;;;;;;;21.17;28.60;99910.09;102590;1329;74039;-82
2022/02/07 09:32:16;;;;;;;9.40;5.90;;;;;;;21.18;28.57;99908.80;102576;1328;73789;-81
2022/02/07 09:34:55;;;;;;;;;;;;;;;;;;;;;
2022/02/07 09:37:47;;;;;;;9.10;6.00;;;;;;;21.18;28.56;99892.84;102664;1328;61657;-82
2022/02/07 09:40:35;;;;;;;8.20;5.70;;;;;;;21.19;28.58;99889.39;102430;1328;73799;-81
2022/02/07 09:43:29;;;;;;;9.30;5.80;;;;;;;21.20;28.72;99880.34;102540;1325;75993;-81
2022/02/07 09:46:23;;;;;;;9.00;5.20;;;;;;;21.20;28.70;99877.95;102753;1320;61324;-82
2022/02/07 09:49:03;;;;;;;10.70;5.80;;;;;;;21.21;28.76;99873.61;103965;1314;61352;-81
2022/02/07 09:51:42;;;;;;;;;;;;;;;;;;;;;
2022/02/07 09:54:28;;;;;;;10.80;5.90;;;;;;;21.23;28.95;99870.74;103892;1313;74679;-80
2022/02/07 09:57:20;;;;;;;9.50;5.60;;;;;;;21.24;28.77;99864.57;104039;1310;61421;-84
2022/02/07 10:00:06;;;;;;;8.90;5.60;;;;;;;21.25;28.90;99853.58;104056;1314;61304;-84
2022/02/07 10:05:43;;;;;;;7.90;5.50;;;;;;;21.26;29.22;99842.58;104459;1308;74775;-81
2022/02/07 10:08:49;;;;;;;8.70;5.30;;;;;;;21.27;28.92;99837.50;104289;1308;61751;-80
2022/02/07 10:11:45;;;;;;;8.70;5.40;;;;;;;21.27;29.14;99831.60;104347;1308;61106;-85
2022/02/07 10:36:48;;;;;;;11.20;5.60;;;;;;;21.30;29.30;99811.29;103132;1320;61697;-82
2022/02/07 10:40:09;;;;;;;9.30;5.80;;;;;;;21.31;29.39;99805.51;103160;1320;72863;-80
2022/02/07 10:46:20;;;;;;;7.90;5.50;;;;;;;21.30;29.27;99800.91;102792;1325;61790;-84
2022/02/07 10:49:21;;;;;;;10.20;5.70;;;;;;;21.30;29.41;99798.27;102732;1325;61327;-83
2022/02/07 10:52:32;;;;;;;8.30;5.70;;;;;;;21.30;29.32;99796.83;102761;1325;72802;-84
2022/02/07 10:55:24;;;;;;;8.80;5.40;;;;;;;21.29;29.41;99794.41;102776;1324;74738;-83
2022/02/07 10:58:22;;;;;;;8.70;5.50;;;;;;;21.28;29.40;99787.64;103010;1319;61518;-89
2022/02/07 11:01:02;;;;;;;8.10;5.70;;;;;;;21.28;29.41;99778.71;103273;1319;62027;-83
2022/02/07 11:03:47;;;;;;;10.40;6.20;;;;;;;21.29;29.38;99775.28;103194;1320;72640;-81
2022/02/07 11:06:27;;;;;;;;;;;;;;;;;;;;;
2022/02/07 11:09:58;;;;;;;8.30;5.40;;;;;;;21.28;29.47;99775.83;102930;1321;62030;-83
2022/02/07 11:13:11;;;;;;;10.30;5.80;;;;;;;21.27;29.51;99766.98;103426;1313;62085;-83
2022/02/07 11:16:13;;;;;;;8.60;5.90;;;;;;;21.27;29.57;99769.30;104045;1314;73828;-83
2022/02/07 11:19:06;;;;;;;9.40;5.50;;;;;;;21.27;29.52;99768.20;103990;1316;75543;-83
2022/02/07 11:22:57;;;;;;;;;;;;;;;;;;;;;
2022/02/07 11:28:44;;;;;;;8.70;5.60;;;;;;;21.28;29.75;99750.10;104003;1313;73965;-83
2022/02/07 11:31:32;;;;;;;9.00;5.90;;;;;;;21.29;29.71;99739.83;103935;1313;75543;-81
2022/02/07 11:34:40;;;;;;;11.90;6.20;;;;;;;21.29;29.52;99741.40;104155;1313;62142;-82
2022/02/07 11:37:52;;;;;;;11.20;6.10;;;;;;;21.28;29.63;99743.29;103509;1319;62286;-81
2022/02/07 11:40:55;;;;;;;9.40;5.90;;;;;;;21.29;29.57;99739.26;103463;1319;73842;-84
2022/02/07 11:43:47;;;;;;;8.90;5.70;;;;;;;21.29;29.61;99731.21;102995;1323;75538;-83
2022/02/07 11:46:34;;;;;;;9.60;5.90;;;;;;;21.30;29.58;99733.48;102635;1327;62671;-81
2022/02/07 11:49:03;;;;;;;13.80;6.20;;;;;;;21.30;29.59;99730.73;102093;1333;62494;-82
2022/02/07 11:51:58;;;;;;;10.00;6.00;;;;;;;21.32;29.67;99727.35;102244;1332;71662;-84
2022/02/07 11:54:35;;;;;;;8.90;6.00;;;;;;;21.32;29.73;99729.70;101786;1338;75705;-85
2022/02/07 11:57:22;;;;;;;8.80;5.80;;;;;;;21.33;29.65;99724.10;101823;1338;61964;-85
2022/02/07 12:00:03;;;;;;;14.90;6.50;;;;;;;21.32;29.65;99718.73;101939;1334;62243;-83
2022/02/07 12:02:51;;;;;;;8.60;5.70;;;;;;;21.33;29.74;99712.77;101982;1333;73967;-82
2022/02/07 12:05:30;;;;;;;13.80;6.40;;;;;;;21.33;29.58;99711.36;102218;1334;75363;-82
2022/02/07 12:08:19;;;;;;;10.00;6.10;;;;;;;21.32;29.56;99705.73;102036;1333;62009;-81
2022/02/07 12:11:44;;;;;;;10.00;5.80;;;;;;;21.31;29.63;99707.20;102011;1334;62580;-81
2022/02/07 12:14:53;;;;;;;11.20;6.30;;;;;;;21.30;29.56;99702.20;101898;1334;74849;-83
2022/02/07 12:18:01;;;;;;;11.00;6.00;;;;;;;21.29;29.53;99693.44;101697;1340;77181;-80
2022/02/07 12:20:43;;;;;;;10.80;6.10;;;;;;;21.29;29.51;99691.71;102142;1331;62051;-82
2022/02/07 12:24:00;;;;;;;8.80;5.50;;;;;;;21.29;29.55;99687.21;102410;1328;62028;-82
2022/02/07 12:27:05;;;;;;;10.10;6.10;;;;;;;21.29;29.56;99691.31;102363;1331;72703;-86
2022/02/07 12:30:16;;;;;;;9.50;5.60;;;;;;;21.29;29.58;99693.69;102413;1330;75910;-85
2022/02/07 12:32:54;;;;;;;9.40;5.30;;;;;;;21.29;29.63;99689.52;102623;1327;62390;-81
2022/02/07 12:35:34;;;;;;;10.30;6.20;;;;;;;21.29;29.67;99692.95;102655;1326;62589;-82
2022/02/07 12:38:22;;;;;;;11.10;6.20;;;;;;;21.29;29.77;99697.59;102344;1331;71671;-81
2022/02/07 12:40:50;;;;;;;10.10;5.50;;;;;;;21.29;29.80;99700.45;102317;1331;75482;-86
2022/02/07 12:43:27;;;;;;;11.40;6.30;;;;;;;21.29;29.81;99704.71;102401;1331;61565;-81
2022/02/07 12:45:53;;;;;;;11.70;6.00;;;;;;;21.30;29.84;99705.77;102576;1328;62601;-85
2022/02/07 12:48:27;;;;;;;8.90;5.80;;;;;;;21.29;29.82;99707.40;102679;1321;60560;-81
2022/02/07 12:51:04;;;;;;;10.00;5.80;;;;;;;21.30;29.87;99710.05;102739;1321;75841;-81
2022/02/07 12:53:48;;;;;;;10.30;6.40;;;;;;;21.30;29.89;99707.55;102896;1322;62838;-83
2022/02/07 12:56:24;;;;;;;10.60;6.00;;;;;;;21.29;29.93;99705.08;102753;1322;62155;-81
2022/02/07 12:59:22;;;;;;;9.50;5.80;;;;;;;21.29;29.83;99702.24;102879;1322;72923;-83
2022/02/07 13:02:13;;;;;;;8.00;5.20;;;;;;;21.29;29.92;99702.78;102954;1322;75763;-87
2022/02/07 13:04:41;;;;;;;10.60;5.90;;;;;;;21.29;29.96;99703.30;103910;1314;62138;-84
2022/02/07 13:07:36;;;;;;;;;;;;;;;;;;;;;
2022/02/07 13:10:15;;;;;;;8.40;5.40;;;;;;;21.31;29.91;99696.52;104179;1314;73096;-85
2022/02/07 13:13:06;;;;;;;;;;;;;;;;;;;;;
2022/02/07 13:18:50;;;;;;;9.90;6.00;;;;;;;21.32;30.22;99693.95;104137;1313;62096;-84
2022/02/07 13:21:56;;;;;;;10.20;6.10;;;;;;;21.31;30.21;99692.16;103623;1317;71560;-88
2022/02/07 13:24:47;;;;;;;9.50;6.00;;;;;;;21.31;30.23;99688.44;103187;1323;75005;-83
2022/02/07 13:27:23;;;;;;;9.00;5.60;;;;;;;21.30;30.26;99681.01;102437;1331;62076;-85
2022/02/07 13:30:18;;;;;;;11.80;5.80;;;;;;;21.29;30.31;99675.02;102343;1331;62004;-82
2022/02/07 13:33:09;;;;;;;8.80;5.50;;;;;;;21.29;30.35;99673.04;102247;1331;73662;-81
2022/02/07 13:36:02;;;;;;;;;;;;;;;;;;;;;
2022/02/07 13:38:37;;;;;;;10.40;6.20;;;;;;;21.30;30.48;99669.06;102734;1331;62054;-82
2022/02/07 13:41:29;;;;;;;;;;;;;;;;;;;;;
2022/02/07 13:44:03;;;;;;;10.90;5.70;;;;;;;21.30;30.53;99661.52;102343;1331;72891;-81
2022/02/07 13:46:40;;;;;;;9.70;6.00;;;;;;;21.30;30.48;99660.41;102359;1331;75383;-88
2022/02/07 13:49:47;;;;;;;9.70;5.80;;;;;;;21.31;30.53;99654.31;102458;1331;62318;-84
2022/02/07 13:53:03;;;;;;;8.00;5.80;;;;;;;21.30;30.52;99647.17;102362;1331;62212;-83
2022/02/07 13:56:04;;;;;;;;;;;;;;;;;;;;;
2022/02/07 13:59:19;;;;;;;9.60;6.10;;;;;;;21.31;30.56;99634.81;102416;1331;75454;-85
2022/02/07 14:02:09;;;;;;;8.40;5.30;;;;;;;21.30;30.72;99629.84;102761;1322;62066;-81
2022/02/07 14:05:09;;;;;;;8.30;5.40;;;;;;;21.31;30.68;99631.21;103501;1314;62168;-84
2022/02/07 14:08:30;;;;;;;11.90;5.90;;;;;;;21.31;30.83;99631.75;104152;1316;73683;-84
2022/02/07 14:11:52;;;;;;;9.00;5.90;;;;;;;21.30;30.82;99632.31;103238;1319;76093;-83
2022/02/07 14:14:39;;;;;;;9.60;5.60;;;;;;;21.30;30.84;99631.98;102716;1326;62036;-87
2022/02/07 14:17:46;;;;;;;9.50;6.40;;;;;;;21.31;30.88;99628.90;102728;1328;62031;-84
2022/02/07 14:20:36;;;;;;;8.10;5.60;;;;;;;21.31;30.97;99632.23;102758;1328;72996;-88
2022/02/07 14:23:43;;;;;;;8.80;5.50;;;;;;;21.32;30.96;99631.45;102576;1326;74424;-87
2022/02/07 14:26:40;;;;;;;8.20;5.80;;;;;;;21.32;31.06;99628.79;102747;1326;62139;-84
2022/02/07 14:29:12;;;;;;;9.20;5.80;;;;;;;21.32;31.04;99631.84;102570;1325;62241;-84
2022/02/07 14:32:21;;;;;;;10.30;6.10;;;;;;;21.32;31.17;99633.79;102719;1322;73886;-82
2022/02/07 14:35:06;;;;;;;10.30;5.70;;;;;;;21.32;31.16;99631.30;102704;1328;76637;-84
2022/02/07 14:37:52;;;;;;;8.70;5.90;;;;;;;21.32;31.18;99625.17;102598;1327;62220;-81
2022/02/07 14:40:39;;;;;;;8.70;6.00;;;;;;;21.33;31.38;99625.11;102654;1328;62463;-89
2022/02/07 14:44:00;;;;;;;8.80;5.90;;;;;;;21.33;31.28;99626.56;102632;1328;72798;-83
2022/02/07 14:47:10;;;;;;;7.80;5.40;;;;;;;21.33;31.36;99626.55;102779;1325;74676;-87
2022/02/07 14:49:56;;;;;;;10.10;5.20;;;;;;;21.33;31.48;99622.09;103251;1316;62000;-82
2022/02/07 14:52:50;;;;;;;9.50;5.60;;;;;;;21.32;31.47;99620.31;104061;1315;63256;-81
2022/02/07 14:55:32;;;;;;;9.80;5.60;;;;;;;21.33;31.45;99621.15;104073;1316;73818;-87
2022/02/07 14:58:21;;;;;;;8.30;5.50;;;;;;;21.33;31.45;99623.25;104037;1316;75757;-84
2022/02/07 15:01:21;;;;;;;7.60;5.70;;;;;;;21.33;31.49;99622.58;103870;1316;62007;-83
2022/02/07 15:04:08;;;;;;;10.00;5.80;;;;;;;21.33;31.57;99620.76;104065;1316;62268;-85
2022/02/07 15:07:06;;;;;;;;;;;;;;;21.33;31.60;99615.25;103448;1319;72967;-87
2022/02/07 15:09:40;;;;;;;7.80;5.10;;;;;;;21.30;31.58;99617.29;104066;1316;75575;-79
2022/02/07 15:12:55;;;;;;;8.30;5.20;;;;;;;21.32;31.69;99615.73;104283;1307;62218;-85
2022/02/07 15:15:44;;;;;;;7.70;5.40;;;;;;;21.32;31.70;99616.64;104424;1311;62129;-84
2022/02/07 15:18:42;;;;;;;8.80;5.70;;;;;;;21.31;31.73;99615.39;103949;1317;73972;-84
2022/02/07 15:21:27;;;;;;;8.40;5.90;;;;;;;21.31;31.79;99613.79;103310;1322;75865;-83
2022/02/07 15:24:13;;;;;;;8.60;5.30;;;;;;;21.31;31.83;99609.50;103260;1321;62114;-83
2022/02/07 15:26:48;;;;;;;10.00;6.10;;;;;;;21.32;31.75;99606.62;103306;1323;62234;-83
2022/02/07 15:29:57;;;;;;;;;;;;;;;;;;;;;
2022/02/07 15:33:00;;;;;;;8.40;5.60;;;;;;;21.32;31.90;99604.94;103093;1321;76553;-85
2022/02/07 15:35:45;;;;;;;8.40;5.60;;;;;;;21.31;31.98;99599.84;102667;1329;62264;-88
2022/02/07 15:38:44;;;;;;;8.50;6.00;;;;;;;21.32;31.93;99599.43;102711;1329;62110;-86
2022/02/07 15:41:53;;;;;;;8.80;5.40;;;;;;;21.31;32.03;99602.55;102740;1326;72802;-86
2022/02/07 15:45:02;;;;;;;9.40;6.00;;;;;;;21.32;32.01;99596.98;102740;1329;74331;-89
2022/02/07 15:48:11;;;;;;;9.30;5.70;;;;;;;21.32;32.12;99594.29;102991;1324;62132;-85
2022/02/07 15:51:13;;;;;;;8.20;5.80;;;;;;;21.31;32.10;99595.00;102986;1325;62134;-85
2022/02/07 15:54:12;;;;;;;8.60;5.90;;;;;;;21.32;32.16;99598.19;102883;1325;72718;-85
2022/02/07 15:57:08;;;;;;;9.50;6.00;;;;;;;21.32;32.12;99602.69;102988;1322;76754;-84
2022/02/07 16:00:12;;;;;;;;;;;;;;;;;;;;;
2022/02/07 16:03:02;;;;;;;9.70;5.60;;;;;;;21.32;32.14;99594.27;104227;1313;61944;-85
2022/02/07 16:06:18;;;;;;;8.30;6.00;;;;;;;21.31;32.22;99593.59;104192;1314;74023;-84
2022/02/07 16:09:07;;;;;;;10.40;6.40;;;;;;;21.32;32.24;99594.56;104121;1313;76666;-85
2022/02/07 16:11:57;;;;;;;10.00;6.30;;;;;;;21.31;32.24;99595.20;104242;1305;60641;-84
2022/02/07 16:15:14;;;;;;;9.40;5.90;;;;;;;21.31;32.31;99594.13;104360;1311;62214;-83
2022/02/07 16:18:00;;;;;;;9.30;5.80;;;;;;;21.31;32.24;99594.48;103644;1319;71720;-86